createdAt,value
2023-06-07T00:00:09.994Z,1.85
2023-06-07T00:02:44.438Z,2.30
2023-06-07T00:05:16.184Z,1.77
2023-06-07T00:07:45.775Z,2.15
2023-06-07T00:10:13.721Z,2.15
2023-06-07T00:12:42.851Z,1.52
2023-06-07T00:15:12.398Z,2.13
2023-06-07T00:17:42.502Z,1.85
2023-06-07T00:20:14.011Z,1.80
2023-06-07T00:22:42.213Z,1.90
2023-06-07T00:25:10.569Z,1.80
2023-06-07T00:27:38.492Z,1.63
2023-06-07T00:30:07.281Z,1.90
2023-06-07T00:32:35.777Z,2.28
2023-06-07T00:35:03.886Z,1.80
2023-06-07T00:37:32.035Z,1.95
2023-06-07T00:40:00.805Z,1.70
2023-06-07T00:42:28.987Z,1.70
2023-06-07T00:44:58.703Z,1.60
2023-06-07T00:47:28.228Z,1.58
2023-06-07T00:49:56.693Z,1.60
2023-06-07T00:52:25.110Z,1.60
2023-06-07T00:54:54.119Z,1.67
2023-06-07T00:57:22.308Z,1.33
2023-06-07T00:59:50.270Z,1.50
2023-06-07T01:02:18.481Z,1.63
2023-06-07T01:04:47.025Z,1.75
2023-06-07T01:07:18.664Z,1.80
2023-06-07T01:09:46.770Z,2.08
2023-06-07T01:12:17.714Z,2.08
2023-06-07T01:14:50.858Z,1.80
2023-06-07T01:17:22.834Z,2.03
2023-06-07T01:19:54.407Z,1.70
2023-06-07T01:22:34.087Z,1.60
2023-06-07T01:25:02.233Z,1.60
2023-06-07T01:27:32.099Z,1.48
2023-06-07T01:30:01.123Z,1.60
2023-06-07T01:32:30.750Z,2.13
2023-06-07T01:34:59.143Z,1.48
2023-06-07T01:37:28.172Z,1.90
2023-06-07T01:39:57.723Z,1.83
2023-06-07T01:42:26.303Z,1.50
2023-06-07T01:44:57.232Z,1.83
2023-06-07T01:47:25.781Z,1.80
2023-06-07T01:49:53.778Z,2.28
2023-06-07T01:52:21.733Z,2.08
2023-06-07T01:54:50.225Z,1.98
2023-06-07T01:57:33.328Z,2.10
2023-06-07T02:00:23.325Z,2.10
2023-06-07T02:03:00.914Z,1.90
2023-06-07T02:05:50.166Z,2.10
2023-06-07T02:08:31.434Z,1.88
2023-06-07T02:11:00.235Z,2.08
2023-06-07T02:13:31.372Z,2.20
2023-06-07T02:15:59.557Z,2.20
2023-06-07T02:18:27.517Z,2.53
2023-06-07T02:20:55.485Z,2.15
2023-06-07T02:23:23.600Z,1.67
2023-06-07T02:25:51.564Z,2.20
2023-06-07T02:28:19.513Z,2.05
2023-06-07T02:30:48.074Z,2.10
2023-06-07T02:33:16.065Z,2.10
2023-06-07T02:35:47.134Z,2.10
2023-06-07T02:38:15.899Z,1.80
2023-06-07T02:40:43.833Z,2.40
2023-06-07T02:43:11.808Z,1.95
2023-06-07T02:45:39.719Z,1.80
2023-06-07T02:48:08.527Z,2.42
2023-06-07T02:50:36.655Z,1.90
2023-06-07T02:53:07.491Z,1.90
2023-06-07T02:55:35.723Z,1.67
2023-06-07T02:58:06.750Z,2.22
2023-06-07T03:00:37.503Z,2.10
2023-06-07T03:03:12.444Z,2.08
2023-06-07T03:05:49.301Z,2.05
2023-06-07T03:08:18.382Z,2.35
2023-06-07T03:10:46.477Z,2.65
2023-06-07T03:13:21.145Z,2.80
2023-06-07T03:15:49.326Z,2.22
2023-06-07T03:18:17.524Z,2.80
2023-06-07T03:20:51.895Z,2.08
2023-06-07T03:23:21.031Z,2.15
2023-06-07T03:25:51.293Z,2.50
2023-06-07T03:28:25.178Z,2.10
2023-06-07T03:30:53.351Z,2.00
2023-06-07T03:33:27.829Z,2.03
2023-06-07T03:35:57.656Z,1.98
2023-06-07T03:38:32.662Z,2.15
2023-06-07T03:41:00.688Z,2.30
2023-06-07T03:43:34.875Z,2.00
2023-06-07T03:46:03.032Z,1.60
2023-06-07T03:48:31.324Z,1.90
2023-06-07T03:51:01.615Z,1.80
2023-06-07T03:53:30.262Z,1.90
2023-06-07T03:55:58.327Z,1.73
2023-06-07T03:58:28.756Z,2.22
2023-06-07T04:00:57.595Z,1.88
2023-06-07T04:03:29.538Z,2.10
2023-06-07T04:06:00.377Z,1.60
2023-06-07T04:08:28.802Z,1.98
2023-06-07T04:10:56.957Z,3.28
2023-06-07T04:13:25.045Z,2.10
2023-06-07T04:15:53.441Z,2.55
2023-06-07T04:18:21.757Z,2.30
2023-06-07T04:20:51.823Z,1.85
2023-06-07T04:23:19.773Z,2.05
2023-06-07T04:25:49.415Z,2.17
2023-06-07T04:28:18.574Z,2.42
2023-06-07T04:30:47.233Z,2.05
2023-06-07T04:33:18.672Z,1.90
2023-06-07T04:35:51.618Z,2.13
2023-06-07T04:38:23.379Z,2.13
2023-06-07T04:40:55.990Z,2.10
2023-06-07T04:43:36.846Z,2.08
2023-06-07T04:46:06.701Z,2.42
2023-06-07T04:48:42.957Z,2.03
2023-06-07T04:51:14.698Z,1.90
2023-06-07T04:53:46.457Z,2.10
2023-06-07T04:56:23.924Z,1.85
2023-06-07T04:58:56.880Z,2.17
2023-06-07T05:01:29.064Z,2.78
2023-06-07T05:04:04.254Z,1.90
2023-06-07T05:06:41.756Z,2.20
2023-06-07T05:09:10.632Z,2.47
2023-06-07T05:11:38.724Z,2.50
2023-06-07T05:14:07.057Z,2.38
2023-06-07T05:16:35.528Z,2.80
2023-06-07T05:19:05.284Z,2.78
2023-06-07T05:21:37.245Z,3.28
2023-06-07T05:24:06.779Z,2.88
2023-06-07T05:26:34.872Z,2.53
2023-06-07T05:29:02.930Z,2.28
2023-06-07T05:31:32.015Z,2.60
2023-06-07T05:34:00.153Z,2.58
2023-06-07T05:36:29.050Z,2.33
2023-06-07T05:39:00.300Z,2.30
2023-06-07T05:41:28.798Z,1.90
2023-06-07T05:43:56.684Z,2.38
2023-06-07T05:46:24.837Z,2.10
2023-06-07T05:48:52.825Z,2.17
2023-06-07T05:51:24.101Z,2.10
2023-06-07T05:53:52.043Z,2.13
2023-06-07T05:56:22.364Z,2.17
2023-06-07T05:58:50.872Z,1.73
2023-06-07T06:01:46.933Z,2.30
2023-06-07T06:04:20.072Z,2.10
2023-06-07T06:06:50.974Z,2.00
2023-06-07T06:09:21.811Z,1.65
2023-06-07T06:11:53.508Z,1.83
2023-06-07T06:14:27.304Z,1.60
2023-06-07T06:16:57.486Z,1.90
2023-06-07T06:19:27.899Z,2.28
2023-06-07T06:21:59.115Z,2.13
2023-06-07T06:24:29.558Z,2.00
2023-06-07T06:26:59.552Z,2.05
2023-06-07T06:29:31.146Z,2.10
2023-06-07T06:32:02.891Z,2.28
2023-06-07T06:34:38.363Z,2.63
2023-06-07T06:37:08.714Z,1.92
2023-06-07T06:39:39.012Z,3.53
2023-06-07T06:42:09.586Z,2.50
2023-06-07T06:45:09.379Z,2.78
2023-06-07T06:47:43.462Z,2.95
2023-06-07T06:52:53.027Z,2.85
2023-06-07T06:55:23.298Z,2.45
2023-06-07T06:57:53.589Z,2.65
2023-06-07T07:00:27.124Z,2.55
2023-06-07T07:03:03.486Z,2.35
2023-06-07T07:05:38.672Z,2.90
2023-06-07T07:08:09.146Z,3.30
2023-06-07T07:10:39.678Z,2.72
2023-06-07T07:13:10.064Z,3.38
2023-06-07T07:15:40.156Z,3.80
2023-06-07T07:18:10.354Z,3.25
2023-06-07T07:20:44.389Z,4.50
2023-06-07T07:23:16.757Z,3.78
2023-06-07T07:25:47.011Z,4.00
2023-06-07T07:28:17.590Z,3.83
2023-06-07T07:30:49.247Z,4.00
2023-06-07T07:33:19.547Z,3.83
2023-06-07T07:35:51.073Z,4.05
2023-06-07T07:38:24.397Z,3.50
2023-06-07T07:40:57.507Z,3.50
2023-06-07T07:43:31.172Z,3.25
2023-06-07T07:46:03.577Z,2.83
2023-06-07T07:48:33.904Z,3.40
2023-06-07T07:51:05.804Z,3.75
2023-06-07T07:53:36.218Z,3.40
2023-06-07T07:56:06.579Z,4.13
2023-06-07T07:58:38.138Z,3.35
2023-06-07T08:01:10.803Z,3.30
2023-06-07T08:03:43.553Z,3.90
2023-06-07T08:06:13.928Z,3.70
2023-06-07T08:08:44.383Z,3.90
2023-06-07T08:11:14.681Z,4.13
2023-06-07T08:13:44.933Z,4.05
2023-06-07T08:16:16.719Z,4.47
2023-06-07T08:18:51.396Z,3.92
2023-06-07T08:21:21.673Z,4.07
2023-06-07T08:23:53.433Z,4.70
2023-06-07T08:26:24.861Z,4.07
2023-06-07T08:28:55.138Z,3.80
2023-06-07T08:31:30.348Z,3.55
2023-06-07T08:34:01.013Z,4.05
2023-06-07T08:36:33.018Z,4.38
2023-06-07T08:39:03.495Z,3.83
2023-06-07T08:41:33.735Z,3.50
2023-06-07T08:44:03.626Z,3.30
2023-06-07T08:46:33.991Z,3.30
2023-06-07T08:49:05.309Z,3.20
2023-06-07T08:51:38.814Z,3.75
2023-06-07T08:54:12.765Z,3.47
2023-06-07T08:56:44.960Z,4.50
2023-06-07T09:01:50.794Z,3.70
2023-06-07T09:04:21.842Z,3.30
2023-06-07T09:06:53.309Z,3.03
2023-06-07T09:09:23.954Z,4.18
2023-06-07T09:11:54.935Z,4.07
2023-06-07T09:14:28.072Z,3.20
2023-06-07T09:17:00.295Z,4.17
2023-06-07T09:19:39.961Z,3.58
2023-06-07T09:22:16.912Z,4.15
2023-06-07T09:24:48.386Z,4.07
2023-06-07T09:27:31.956Z,3.75
2023-06-07T09:30:19.428Z,4.53
2023-06-07T09:32:50.937Z,4.13
2023-06-07T09:35:21.464Z,3.28
2023-06-07T09:38:03.094Z,3.72
2023-06-07T09:40:36.775Z,3.58
2023-06-07T09:43:07.805Z,2.97
2023-06-07T09:45:38.126Z,2.72
2023-06-07T09:48:09.876Z,2.83
2023-06-07T09:50:40.398Z,3.33
2023-06-07T09:53:11.273Z,3.40
2023-06-07T09:55:42.228Z,2.92
2023-06-07T09:58:22.034Z,3.15
2023-06-07T10:00:56.040Z,2.50
2023-06-07T10:03:37.620Z,2.92
2023-06-07T10:06:08.130Z,2.78
2023-06-07T10:08:38.968Z,3.03
2023-06-07T10:11:10.168Z,2.80
2023-06-07T10:13:41.714Z,3.13
2023-06-07T10:16:17.399Z,2.63
2023-06-07T10:18:53.240Z,2.85
2023-06-07T10:21:24.240Z,3.13
2023-06-07T10:24:01.880Z,4.03
2023-06-07T10:26:51.176Z,3.35
2023-06-07T10:29:32.052Z,3.38
2023-06-07T10:32:17.611Z,3.40
2023-06-07T10:34:56.403Z,3.15
2023-06-07T10:37:36.020Z,2.90
2023-06-07T10:40:12.369Z,3.30
2023-06-07T10:42:49.495Z,2.92
2023-06-07T10:45:21.834Z,3.20
2023-06-07T10:47:53.861Z,3.80
2023-06-07T10:50:30.542Z,3.63
2023-06-07T10:53:03.121Z,4.25
2023-06-07T10:55:34.507Z,4.35
2023-06-07T10:58:04.460Z,5.00
2023-06-07T11:00:40.780Z,3.70
2023-06-07T11:03:18.427Z,3.90
2023-06-07T11:06:02.164Z,2.97
2023-06-07T11:08:34.727Z,3.72
2023-06-07T11:11:07.257Z,3.63
2023-06-07T11:13:46.761Z,4.68
2023-06-07T11:16:25.324Z,5.47
2023-06-07T11:19:04.212Z,4.95
2023-06-07T11:21:56.260Z,4.32
2023-06-07T11:24:30.010Z,4.38
2023-06-07T11:27:00.768Z,4.82
2023-06-07T11:29:36.890Z,5.05
2023-06-07T11:32:10.061Z,5.70
2023-06-07T11:34:40.663Z,5.10
2023-06-07T11:37:16.442Z,4.57
2023-06-07T11:39:47.727Z,4.32
2023-06-07T11:42:18.148Z,4.65
2023-06-07T11:44:49.807Z,3.70
2023-06-07T11:47:22.633Z,3.95
2023-06-07T11:49:53.662Z,4.97
2023-06-07T11:52:24.808Z,4.65
2023-06-07T11:54:55.421Z,4.95
2023-06-07T11:57:34.363Z,4.38
2023-06-07T12:00:19.600Z,3.95
2023-06-07T12:02:50.871Z,3.83
2023-06-07T12:05:28.902Z,4.10
2023-06-07T12:08:06.645Z,5.15
2023-06-07T12:10:41.473Z,3.78
2023-06-07T12:13:18.416Z,4.15
2023-06-07T12:15:56.400Z,4.20
2023-06-07T12:18:36.772Z,4.70
2023-06-07T12:21:09.518Z,3.53
2023-06-07T12:23:49.855Z,4.20
2023-06-07T12:26:32.332Z,4.03
2023-06-07T12:29:03.631Z,4.82
2023-06-07T12:31:31.676Z,4.80
2023-06-07T12:34:03.816Z,4.13
2023-06-07T12:36:34.760Z,4.18
2023-06-07T12:39:11.378Z,4.20
2023-06-07T12:41:41.505Z,4.55
2023-06-07T12:44:11.303Z,3.72
2023-06-07T12:46:41.111Z,5.18
2023-06-07T12:49:09.106Z,4.22
2023-06-07T12:51:38.006Z,4.40
2023-06-07T12:54:06.101Z,4.18
2023-06-07T12:56:34.076Z,3.72
2023-06-07T12:59:04.162Z,2.55
2023-06-07T13:01:33.007Z,2.08
2023-06-07T13:04:01.964Z,2.35
2023-06-07T13:06:30.355Z,2.22
2023-06-07T13:09:02.271Z,2.35
2023-06-07T13:11:30.409Z,2.67
2023-06-07T13:13:58.537Z,2.35
2023-06-07T13:16:27.945Z,2.38
2023-06-07T13:18:56.112Z,2.05
2023-06-07T13:21:24.483Z,2.22
2023-06-07T13:23:53.899Z,2.53
2023-06-07T13:26:22.235Z,3.15
2023-06-07T13:28:50.905Z,3.75
2023-06-07T13:31:19.066Z,3.63
2023-06-07T13:33:47.102Z,3.58
2023-06-07T13:36:15.434Z,3.85
2023-06-07T13:38:43.353Z,4.10
2023-06-07T13:41:11.375Z,4.32
2023-06-07T13:46:11.236Z,2.95
2023-06-07T13:48:42.544Z,3.30
2023-06-07T13:51:14.537Z,3.00
2023-06-07T13:53:48.059Z,2.65
2023-06-07T13:56:17.637Z,2.60
2023-06-07T13:58:47.015Z,2.70
2023-06-07T14:01:16.000Z,2.42
2023-06-07T14:03:44.304Z,2.85
2023-06-07T14:06:14.145Z,2.60
2023-06-07T14:08:42.366Z,2.70
2023-06-07T14:11:10.547Z,3.25
2023-06-07T14:13:38.794Z,3.28
2023-06-07T14:16:06.903Z,3.67
2023-06-07T14:18:34.861Z,3.50
2023-06-07T14:21:02.971Z,3.35
2023-06-07T14:23:31.248Z,3.33
2023-06-07T14:25:59.439Z,3.63
2023-06-07T14:28:27.501Z,3.30
2023-06-07T14:30:55.864Z,3.40
2023-06-07T14:33:23.861Z,3.25
2023-06-07T14:35:52.224Z,3.63
2023-06-07T14:38:20.221Z,3.35
2023-06-07T14:40:48.273Z,3.97
2023-06-07T14:43:16.492Z,3.88
2023-06-07T14:45:46.329Z,3.47
2023-06-07T14:48:15.402Z,4.00
2023-06-07T14:50:47.505Z,3.40
2023-06-07T14:53:15.847Z,3.63
2023-06-07T14:55:44.082Z,4.00
2023-06-07T14:58:12.143Z,4.15
2023-06-07T15:00:42.220Z,4.03
2023-06-07T15:03:14.072Z,4.07
2023-06-07T15:05:43.738Z,4.32
2023-06-07T15:08:12.885Z,4.38
2023-06-07T15:10:42.276Z,4.22
2023-06-07T15:13:11.828Z,4.00
2023-06-07T15:15:41.966Z,4.35
2023-06-07T15:18:13.559Z,4.47
2023-06-07T15:20:47.431Z,4.18
2023-06-07T15:26:14.540Z,4.63
2023-06-07T15:28:55.480Z,4.30
2023-06-07T15:31:28.678Z,4.85
2023-06-07T15:34:11.020Z,5.00
2023-06-07T15:36:40.460Z,5.15
2023-06-07T15:39:09.730Z,5.63
2023-06-07T15:41:37.701Z,5.97
2023-06-07T15:44:06.114Z,6.00
2023-06-07T15:46:36.835Z,4.82
2023-06-07T15:49:06.393Z,4.82
2023-06-07T15:51:35.772Z,4.70
2023-06-07T15:54:04.832Z,4.57
2023-06-07T15:56:34.285Z,4.95
2023-06-07T15:59:05.481Z,4.32
2023-06-07T16:01:37.660Z,4.53
2023-06-07T16:04:08.301Z,4.80
2023-06-07T16:06:38.661Z,4.22
2023-06-07T16:09:10.013Z,3.92
2023-06-07T16:11:42.022Z,3.85
2023-06-07T16:14:14.149Z,3.88
2023-06-07T16:16:44.008Z,3.40
2023-06-07T16:19:13.845Z,3.25
2023-06-07T16:21:42.238Z,3.15
2023-06-07T16:24:11.303Z,3.03
2023-06-07T16:26:39.547Z,2.92
2023-06-07T16:29:07.681Z,4.10
2023-06-07T16:31:35.787Z,3.53
2023-06-07T16:34:03.946Z,3.90
2023-06-07T16:36:31.985Z,3.53
2023-06-07T16:38:59.930Z,4.15
2023-06-07T16:41:29.740Z,4.03
2023-06-07T16:43:58.087Z,3.47
2023-06-07T16:46:26.179Z,3.40
2023-06-07T16:48:55.266Z,3.90
2023-06-07T16:51:23.243Z,3.85
2023-06-07T16:53:51.629Z,3.60
2023-06-07T16:56:20.060Z,3.33
2023-06-07T16:58:48.157Z,3.75
2023-06-07T17:01:16.358Z,3.22
2023-06-07T17:03:44.567Z,3.58
2023-06-07T17:06:13.159Z,3.40
2023-06-07T17:08:41.786Z,4.13
2023-06-07T17:11:11.125Z,4.32
2023-06-07T17:13:44.887Z,4.18
2023-06-07T17:16:12.973Z,4.03
2023-06-07T17:18:41.094Z,3.78
2023-06-07T17:21:09.249Z,4.38
2023-06-07T17:23:37.427Z,3.97
2023-06-07T17:26:05.561Z,3.42
2023-06-07T17:28:34.565Z,3.95
2023-06-07T17:31:02.523Z,3.58
2023-06-07T17:33:30.593Z,3.83
2023-06-07T17:36:00.458Z,3.58
2023-06-07T17:38:28.586Z,3.42
2023-06-07T17:40:57.408Z,3.88
2023-06-07T17:43:25.961Z,3.80
2023-06-07T17:45:53.996Z,3.78
2023-06-07T17:48:22.028Z,4.20
2023-06-07T17:50:49.950Z,5.00
2023-06-07T17:53:17.968Z,3.92
2023-06-07T17:55:46.565Z,4.10
2023-06-07T17:58:14.900Z,4.13
2023-06-07T18:00:42.749Z,3.63
2023-06-07T18:03:12.760Z,3.45
2023-06-07T18:05:40.864Z,3.25
2023-06-07T18:08:08.898Z,3.83
2023-06-07T18:10:37.721Z,3.60
2023-06-07T18:13:05.767Z,3.05
2023-06-07T18:15:35.885Z,3.35
2023-06-07T18:18:03.898Z,3.28
2023-06-07T18:20:31.910Z,3.13
2023-06-07T18:22:59.850Z,3.50
2023-06-07T18:25:27.814Z,3.42
2023-06-07T18:28:00.252Z,3.55
2023-06-07T18:30:29.761Z,3.78
2023-06-07T18:32:57.797Z,3.38
2023-06-07T18:35:26.212Z,4.10
2023-06-07T18:37:54.100Z,3.78
2023-06-07T18:40:22.188Z,3.90
2023-06-07T18:42:50.121Z,3.72
2023-06-07T18:45:18.046Z,4.15
2023-06-07T18:47:46.340Z,4.30
2023-06-07T18:50:14.488Z,4.70
2023-06-07T18:52:42.524Z,3.92
2023-06-07T18:55:10.855Z,4.03
2023-06-07T18:57:38.817Z,4.30
2023-06-07T19:00:07.593Z,4.30
2023-06-07T19:02:35.888Z,3.90
2023-06-07T19:05:04.342Z,4.03
2023-06-07T19:07:32.694Z,4.13
2023-06-07T19:10:00.707Z,4.63
2023-06-07T19:12:29.274Z,4.40
2023-06-07T19:14:57.413Z,4.28
2023-06-07T19:17:25.525Z,4.07
2023-06-07T19:19:53.572Z,4.20
2023-06-07T19:22:21.434Z,4.53
2023-06-07T19:24:51.140Z,3.72
2023-06-07T19:27:19.860Z,4.13
2023-06-07T19:29:48.139Z,4.07
2023-06-07T19:32:16.176Z,4.40
2023-06-07T19:34:45.699Z,4.53
2023-06-07T19:37:14.042Z,4.70
2023-06-07T19:39:41.995Z,4.57
2023-06-07T19:42:15.478Z,4.80
2023-06-07T19:44:45.165Z,5.00
2023-06-07T19:47:14.031Z,4.82
2023-06-07T19:49:42.380Z,4.57
2023-06-07T19:52:10.649Z,5.32
2023-06-07T19:54:38.939Z,4.97
2023-06-07T19:57:07.870Z,5.15
2023-06-07T19:59:38.063Z,5.40
2023-06-07T20:02:08.396Z,5.22
2023-06-07T20:04:36.656Z,5.22
2023-06-07T20:07:09.352Z,5.47
2023-06-07T20:09:40.422Z,6.57
2023-06-07T20:12:09.687Z,5.45
2023-06-07T20:14:40.917Z,5.97
2023-06-07T20:17:10.435Z,5.35
2023-06-07T20:19:39.473Z,6.13
2023-06-07T20:22:07.564Z,6.13
2023-06-07T20:24:35.600Z,5.72
2023-06-07T20:27:03.652Z,6.40
2023-06-07T20:29:31.672Z,6.40
2023-06-07T20:31:59.691Z,6.88
2023-06-07T20:34:27.879Z,6.53
2023-06-07T20:36:55.874Z,6.35
2023-06-07T20:39:23.812Z,6.45
2023-06-07T20:41:51.770Z,6.50
2023-06-07T20:44:19.806Z,6.25
2023-06-07T20:46:48.294Z,7.00
2023-06-07T20:49:16.466Z,7.10
2023-06-07T20:51:44.554Z,6.65
2023-06-07T20:54:12.625Z,5.93
2023-06-07T20:56:40.847Z,6.25
2023-06-07T20:59:08.795Z,6.40
2023-06-07T21:01:38.120Z,6.35
2023-06-07T21:04:06.739Z,6.80
2023-06-07T21:06:34.808Z,5.82
2023-06-07T21:09:04.061Z,5.85
2023-06-07T21:11:32.141Z,6.28
2023-06-07T21:14:00.208Z,6.65
2023-06-07T21:16:28.255Z,6.78
2023-06-07T21:18:56.603Z,6.68
2023-06-07T21:21:24.590Z,6.30
2023-06-07T21:23:52.592Z,6.85
2023-06-07T21:26:22.458Z,5.70
2023-06-07T21:28:50.669Z,6.07
2023-06-07T21:31:18.627Z,6.72
2023-06-07T21:34:03.099Z,7.07
2023-06-07T21:39:00.333Z,6.53
2023-06-07T21:41:28.284Z,6.60
2023-06-07T21:43:56.684Z,6.60
2023-06-07T21:46:24.889Z,6.95
2023-06-07T21:48:52.942Z,7.57
2023-06-07T21:51:21.603Z,6.90
2023-06-07T21:53:50.241Z,7.55
2023-06-07T21:56:18.420Z,7.20
2023-06-07T21:58:46.754Z,6.93
2023-06-07T22:01:15.512Z,7.43
2023-06-07T22:03:43.501Z,7.63
2023-06-07T22:06:11.461Z,7.28
2023-06-07T22:08:39.569Z,7.03
2023-06-07T22:11:07.513Z,8.02
2023-06-07T22:13:38.301Z,8.13
2023-06-07T22:16:06.515Z,8.20
2023-06-07T22:18:36.556Z,8.30
2023-06-07T22:21:05.247Z,8.38
2023-06-07T22:23:33.781Z,7.53
2023-06-07T22:26:02.338Z,7.65
2023-06-07T22:28:33.919Z,8.80
2023-06-07T22:31:04.045Z,7.72
2023-06-07T22:33:33.471Z,8.10
2023-06-07T22:36:04.935Z,7.35
2023-06-07T22:38:32.948Z,7.78
2023-06-07T22:41:01.751Z,8.18
2023-06-07T22:43:29.737Z,8.57
2023-06-07T22:45:57.680Z,8.85
2023-06-07T22:48:25.713Z,8.48
2023-06-07T22:50:55.472Z,8.60
2023-06-07T22:53:25.147Z,8.93
2023-06-07T22:55:52.980Z,9.60
2023-06-07T22:58:20.983Z,10.10
2023-06-07T23:00:49.370Z,9.20
2023-06-07T23:03:20.051Z,10.57
2023-06-07T23:05:49.189Z,10.18
2023-06-07T23:08:20.587Z,10.07
2023-06-07T23:10:50.922Z,10.55
2023-06-07T23:13:20.360Z,9.75
2023-06-07T23:15:48.170Z,10.48
2023-06-07T23:18:17.351Z,9.88
2023-06-07T23:20:46.918Z,9.95
2023-06-07T23:23:14.962Z,10.18
2023-06-07T23:25:43.300Z,9.07
2023-06-07T23:28:12.381Z,8.20
2023-06-07T23:30:41.099Z,8.70
2023-06-07T23:33:09.139Z,6.57
2023-06-07T23:35:38.221Z,8.05
2023-06-07T23:38:06.195Z,8.57
2023-06-07T23:40:34.044Z,6.85
2023-06-07T23:43:03.538Z,7.38
2023-06-07T23:45:31.969Z,8.93
2023-06-07T23:48:01.234Z,8.23
2023-06-07T23:50:29.610Z,8.95
2023-06-07T23:52:57.661Z,10.07
2023-06-07T23:55:25.905Z,9.45
2023-06-07T23:57:53.909Z,9.80
